Time;durP1;ratioP1;P1;durP2;ratioP2;P2;SDS_P1;SDS_P2;PMS_P1;PMS_P2;Temp;Humidity;BMP_temperature;BMP_pressure;BME280_temperature;BME280_humidity;BME280_pressure;Samples;Min_cycle;Max_cycle;Signal;HPM_P1;HPM_P2
2022/09/29 00:01:32;;;;;;;30.35;10.43;;;8.20;99.90;;;;;;5031324;28;20021;-73
2022/09/29 00:03:58;;;;;;;23.80;11.20;;;8.10;99.90;;;;;;5049070;28;20025;-72
2022/09/29 00:06:24;;;;;;;25.13;9.85;;;8.10;99.90;;;;;;5031030;28;20085;-71
2022/09/29 00:08:49;;;;;;;24.15;10.88;;;8.20;99.90;;;;;;5049964;28;20071;-73
2022/09/29 00:11:17;;;;;;;26.55;10.65;;;8.20;99.90;;;;;;5049594;28;20033;-71
2022/09/29 00:13:44;;;;;;;18.48;9.80;;;8.10;99.90;;;;;;5049347;28;20028;-71
2022/09/29 00:16:10;;;;;;;23.95;10.25;;;8.10;99.90;;;;;;5047211;28;20034;-72
2022/09/29 00:18:36;;;;;;;25.52;10.75;;;8.00;99.90;;;;;;5048243;28;20029;-73
2022/09/29 00:21:03;;;;;;;21.50;10.13;;;8.10;99.90;;;;;;5048663;28;20071;-73
2022/09/29 00:23:30;;;;;;;25.73;11.43;;;8.00;99.90;;;;;;5048197;28;20083;-71
2022/09/29 00:26:16;;;;;;;25.05;10.63;;;8.00;99.90;;;;;;5047446;28;20112;-72
2022/09/29 00:28:48;;;;;;;27.77;11.75;;;8.00;99.90;;;;;;5047218;28;20060;-72
2022/09/29 00:31:14;;;;;;;26.13;10.07;;;8.00;99.90;;;;;;5045687;28;20017;-74
2022/09/29 00:33:40;;;;;;;27.10;11.27;;;7.90;99.90;;;;;;5047837;28;20043;-72
2022/09/29 00:36:09;;;;;;;24.42;10.73;;;7.90;99.90;;;;;;5046536;28;20048;-73
2022/09/29 00:38:35;;;;;;;20.40;9.73;;;7.80;99.90;;;;;;5047162;28;20075;-73
2022/09/29 00:41:02;;;;;;;21.73;10.45;;;7.80;99.90;;;;;;5049326;28;20468;-74
2022/09/29 00:44:12;;;;;;;24.05;9.63;;;7.80;99.90;;;;;;5051741;28;20017;-73
2022/09/29 00:46:52;;;;;;;20.98;9.82;;;7.80;99.90;;;;;;4960101;28;20059;-72
2022/09/29 00:49:37;;;;;;;20.58;10.07;;;7.80;99.90;;;;;;4959490;29;20178;-72
2022/09/29 00:52:09;;;;;;;26.02;10.68;;;7.80;99.90;;;;;;5013877;28;20095;-71
2022/09/29 00:54:41;;;;;;;25.98;11.02;;;7.80;99.90;;;;;;5050873;28;20025;-71
2022/09/29 00:57:08;;;;;;;23.15;10.35;;;7.80;99.90;;;;;;5051335;28;20022;-71
2022/09/29 00:59:45;;;;;;;21.90;10.90;;;7.80;99.90;;;;;;5048672;28;20086;-72
2022/09/29 01:02:12;;;;;;;23.35;9.95;;;7.80;99.90;;;;;;5051273;28;20025;-71
2022/09/29 01:04:39;;;;;;;21.35;10.85;;;7.80;99.90;;;;;;5033506;28;20121;-71
2022/09/29 01:07:07;;;;;;;23.40;11.32;;;7.70;99.90;;;;;;5050053;28;20043;-72
2022/09/29 01:09:37;;;;;;;21.55;10.05;;;7.70;99.90;;;;;;5050128;28;20021;-71
2022/09/29 01:12:03;;;;;;;25.73;11.10;;;7.70;99.90;;;;;;5050251;28;20596;-72
2022/09/29 01:14:32;;;;;;;21.30;10.82;;;7.60;99.90;;;;;;5032855;28;20057;-73
2022/09/29 01:16:58;;;;;;;23.88;11.60;;;7.60;99.90;;;;;;5049605;28;20025;-72
2022/09/29 01:19:51;;;;;;;26.83;13.13;;;7.50;99.90;;;;;;5050676;28;20531;-71
2022/09/29 01:22:35;;;;;;;25.83;11.55;;;7.40;99.90;;;;;;5050736;28;20590;-72
2022/09/29 01:25:36;;;;;;;26.10;12.15;;;7.40;99.90;;;;;;5049666;28;20143;-71
2022/09/29 01:28:28;;;;;;;19.92;10.93;;;7.40;99.90;;;;;;5049017;28;20071;-73
2022/09/29 01:31:03;;;;;;;29.58;12.07;;;7.40;99.90;;;;;;5051371;28;20033;-72
2022/09/29 01:33:33;;;;;;;17.85;10.05;;;7.40;99.90;;;;;;5050753;28;20025;-72
2022/09/29 01:36:07;;;;;;;28.80;11.65;;;7.30;99.90;;;;;;5049772;28;20034;-72
2022/09/29 01:38:36;;;;;;;20.20;10.75;;;7.40;99.90;;;;;;5050453;28;20088;-71
2022/09/29 01:41:16;;;;;;;26.65;12.27;;;7.30;99.90;;;;;;5049551;28;20021;-71
2022/09/29 01:43:54;;;;;;;24.05;10.85;;;7.40;99.90;;;;;;5049368;28;20036;-73
2022/09/29 01:46:29;;;;;;;19.33;10.32;;;7.40;99.90;;;;;;5049508;28;20552;-71
2022/09/29 01:48:57;;;;;;;24.75;11.55;;;7.50;99.90;;;;;;5032088;28;20432;-74
2022/09/29 01:51:50;;;;;;;18.42;10.35;;;7.50;99.90;;;;;;5049984;28;20026;-72
2022/09/29 01:54:21;;;;;;;16.63;9.63;;;7.50;99.90;;;;;;5037586;28;20544;-72
2022/09/29 01:57:07;;;;;;;23.17;10.40;;;7.50;99.90;;;;;;5050315;28;20124;-73
2022/09/29 02:00:10;;;;;;;24.67;10.05;;;7.40;99.90;;;;;;5049546;28;20033;-74
2022/09/29 02:02:38;;;;;;;24.90;11.18;;;7.50;99.90;;;;;;5049070;28;20055;-71
2022/09/29 02:05:10;;;;;;;21.02;10.48;;;7.40;99.90;;;;;;5049792;28;20524;-72
2022/09/29 02:07:39;;;;;;;19.52;9.25;;;7.50;99.90;;;;;;5049924;28;20112;-73
2022/09/29 02:10:30;;;;;;;24.30;10.82;;;7.40;99.90;;;;;;5049589;28;20090;-73
2022/09/29 02:13:00;;;;;;;23.55;10.65;;;7.40;99.90;;;;;;5034163;28;20056;-72
2022/09/29 02:15:33;;;;;;;22.10;10.40;;;7.40;99.90;;;;;;5032742;28;20049;-73
2022/09/29 02:18:06;;;;;;;20.63;10.13;;;7.40;99.90;;;;;;5049214;28;20033;-72
2022/09/29 02:20:31;;;;;;;23.98;9.93;;;7.30;99.90;;;;;;5049727;28;20021;-72
2022/09/29 02:22:57;;;;;;;19.75;9.75;;;7.30;99.90;;;;;;5049435;28;20104;-70
2022/09/29 02:25:23;;;;;;;21.88;9.80;;;7.40;99.90;;;;;;5049572;28;20026;-72
2022/09/29 02:27:49;;;;;;;23.20;11.43;;;7.30;99.90;;;;;;5047853;28;20039;-74
2022/09/29 02:30:16;;;;;;;23.10;11.55;;;7.30;99.90;;;;;;5049500;28;20025;-71
2022/09/29 02:32:42;;;;;;;18.25;10.18;;;7.30;99.90;;;;;;5048530;28;20026;-73
2022/09/29 02:35:10;;;;;;;21.20;10.65;;;7.20;99.90;;;;;;5047069;28;20078;-70
2022/09/29 02:38:00;;;;;;;28.27;10.10;;;7.10;99.90;;;;;;5046917;28;20373;-71
2022/09/29 02:40:47;;;;;;;21.20;10.18;;;7.10;99.90;;;;;;5048813;28;20055;-71
2022/09/29 02:43:40;;;;;;;23.52;9.98;;;7.00;99.90;;;;;;5048388;28;20040;-71
2022/09/29 02:46:09;;;;;;;19.45;8.82;;;7.00;99.90;;;;;;5045642;28;20076;-71
2022/09/29 02:48:55;;;;;;;18.10;8.75;;;6.90;99.90;;;;;;5039406;28;20068;-73
2022/09/29 02:51:35;;;;;;;18.08;9.07;;;6.90;99.90;;;;;;5039830;28;20057;-70
2022/09/29 02:54:11;;;;;;;19.63;9.13;;;6.90;99.90;;;;;;5039664;28;20037;-72
2022/09/29 02:56:53;;;;;;;19.27;9.75;;;6.90;99.90;;;;;;5039649;28;20021;-71
2022/09/29 02:59:44;;;;;;;19.55;9.73;;;6.90;99.90;;;;;;5021100;28;20049;-70
2022/09/29 03:02:09;;;;;;;19.48;9.30;;;6.90;99.90;;;;;;4997305;28;20049;-73
2022/09/29 03:04:35;;;;;;;20.45;9.30;;;6.80;99.90;;;;;;5039182;28;20022;-71
2022/09/29 03:07:00;;;;;;;14.75;8.52;;;6.80;99.90;;;;;;5040147;28;20084;-72
2022/09/29 03:09:27;;;;;;;20.08;8.43;;;6.70;99.90;;;;;;5039668;28;20041;-71
2022/09/29 03:11:53;;;;;;;17.02;9.02;;;6.80;99.90;;;;;;5039179;28;20025;-72
2022/09/29 03:14:19;;;;;;;24.23;8.88;;;6.80;99.90;;;;;;5040376;28;20115;-72
2022/09/29 03:16:44;;;;;;;17.67;8.38;;;6.70;99.90;;;;;;5036984;28;20040;-71
2022/09/29 03:19:10;;;;;;;22.27;8.88;;;6.70;99.90;;;;;;5039824;28;20049;-72
2022/09/29 03:21:35;;;;;;;21.45;8.82;;;6.70;99.90;;;;;;5037859;28;20029;-72
2022/09/29 03:24:01;;;;;;;18.08;7.85;;;6.70;99.90;;;;;;5038730;28;20030;-73
2022/09/29 03:26:29;;;;;;;18.80;7.72;;;6.60;99.90;;;;;;5039786;28;20022;-72
2022/09/29 03:28:54;;;;;;;19.58;8.30;;;6.60;99.90;;;;;;5039822;28;20036;-73
2022/09/29 03:31:20;;;;;;;15.13;7.40;;;6.50;99.90;;;;;;5039840;28;20030;-71
2022/09/29 03:33:46;;;;;;;12.70;6.50;;;6.50;99.90;;;;;;5039163;28;20021;-73
2022/09/29 03:36:12;;;;;;;10.10;5.57;;;6.40;99.90;;;;;;5038593;28;20026;-70
2022/09/29 03:38:38;;;;;;;13.90;6.47;;;6.50;99.90;;;;;;5018207;28;20030;-71
2022/09/29 03:41:05;;;;;;;9.05;5.60;;;6.40;99.90;;;;;;5036770;28;20028;-72
2022/09/29 03:43:30;;;;;;;10.52;5.50;;;6.40;99.90;;;;;;5021524;28;20025;-73
2022/09/29 03:45:57;;;;;;;20.17;5.82;;;6.40;99.90;;;;;;5040408;28;20078;-73
2022/09/29 03:48:24;;;;;;;12.43;5.88;;;6.30;99.90;;;;;;5048216;28;20037;-72
2022/09/29 03:50:50;;;;;;;9.68;5.15;;;6.40;99.90;;;;;;5047461;28;20025;-71
2022/09/29 03:53:17;;;;;;;11.18;5.88;;;6.30;99.90;;;;;;5048478;28;20017;-70
2022/09/29 03:55:49;;;;;;;11.00;5.70;;;6.40;99.90;;;;;;5047671;28;20510;-71
2022/09/29 03:58:15;;;;;;;12.57;5.80;;;6.30;99.90;;;;;;5047058;28;20021;-73
2022/09/29 04:00:40;;;;;;;10.02;5.57;;;6.20;99.90;;;;;;5048404;28;20049;-72
2022/09/29 04:03:06;;;;;;;12.52;6.20;;;6.30;99.90;;;;;;5030030;28;20037;-71
2022/09/29 04:05:37;;;;;;;13.15;6.75;;;6.20;99.90;;;;;;5046050;28;20030;-73
2022/09/29 04:08:06;;;;;;;11.75;5.82;;;6.20;99.90;;;;;;5047596;28;20789;-71
2022/09/29 04:10:36;;;;;;;9.93;5.32;;;6.20;99.90;;;;;;5047338;28;20044;-71
2022/09/29 04:13:02;;;;;;;11.55;5.82;;;6.20;99.90;;;;;;5047177;28;20052;-72
2022/09/29 04:15:28;;;;;;;9.55;5.78;;;6.20;99.90;;;;;;5047422;28;20049;-71
2022/09/29 04:17:54;;;;;;;11.60;5.90;;;6.20;99.90;;;;;;5051224;28;20029;-70
2022/09/29 04:20:19;;;;;;;13.68;6.75;;;6.20;99.90;;;;;;5052177;28;20025;-72
2022/09/29 04:22:45;;;;;;;16.50;6.80;;;6.10;99.90;;;;;;5034803;28;20025;-70
2022/09/29 04:25:11;;;;;;;13.95;6.35;;;6.10;99.90;;;;;;5050788;28;20029;-70
2022/09/29 04:27:37;;;;;;;18.40;6.43;;;6.10;99.90;;;;;;5052351;28;20049;-71
2022/09/29 04:30:04;;;;;;;20.02;7.85;;;6.10;99.90;;;;;;5052155;28;20033;-71
2022/09/29 04:32:29;;;;;;;13.30;7.05;;;6.00;99.90;;;;;;5051335;28;20029;-71
2022/09/29 04:34:55;;;;;;;15.82;7.60;;;6.00;99.90;;;;;;5051942;28;20044;-71
2022/09/29 04:37:20;;;;;;;14.02;8.30;;;6.00;99.90;;;;;;5050292;28;20112;-72
2022/09/29 04:39:46;;;;;;;21.27;8.38;;;6.00;99.90;;;;;;5051552;28;20065;-70
2022/09/29 04:42:12;;;;;;;18.90;8.77;;;6.10;99.90;;;;;;5051390;28;20026;-72
2022/09/29 04:44:37;;;;;;;16.88;8.10;;;6.00;99.90;;;;;;5048965;28;20531;-71
2022/09/29 04:47:03;;;;;;;18.27;8.65;;;6.00;99.90;;;;;;5050956;28;20049;-71
2022/09/29 04:49:29;;;;;;;29.17;10.70;;;6.00;99.90;;;;;;5051470;28;20017;-71
2022/09/29 04:51:55;;;;;;;19.75;9.70;;;6.00;99.90;;;;;;5033674;28;20043;-73
2022/09/29 04:54:21;;;;;;;22.25;10.90;;;6.00;99.90;;;;;;5051254;28;20560;-70
2022/09/29 04:56:48;;;;;;;20.63;9.82;;;6.00;99.90;;;;;;5033874;28;20025;-71
2022/09/29 04:59:14;;;;;;;19.75;9.18;;;6.00;99.90;;;;;;5051223;28;20018;-73
2022/09/29 05:01:39;;;;;;;20.00;9.18;;;6.00;99.90;;;;;;5050699;28;20545;-71
2022/09/29 05:04:07;;;;;;;20.10;9.02;;;5.90;99.90;;;;;;5051135;28;20025;-71
2022/09/29 05:06:38;;;;;;;24.35;9.68;;;6.00;99.90;;;;;;5050574;28;20521;-70
2022/09/29 05:09:04;;;;;;;18.75;9.20;;;6.00;99.90;;;;;;5049815;28;20033;-70
2022/09/29 05:11:29;;;;;;;17.77;8.32;;;6.00;99.90;;;;;;5033688;28;20026;-71
2022/09/29 05:13:55;;;;;;;17.95;8.63;;;6.00;99.90;;;;;;5051095;28;20028;-72
2022/09/29 05:16:21;;;;;;;23.20;10.50;;;6.10;99.90;;;;;;5033081;28;20025;-71
2022/09/29 05:18:47;;;;;;;19.60;9.90;;;6.10;99.90;;;;;;5050107;28;20051;-72
2022/09/29 05:21:12;;;;;;;29.13;10.52;;;6.10;99.90;;;;;;5049998;28;20863;-72
2022/09/29 05:23:38;;;;;;;22.83;11.27;;;6.30;99.90;;;;;;5050842;28;20059;-70
2022/09/29 05:26:05;;;;;;;23.17;11.95;;;6.20;99.90;;;;;;5051084;28;20502;-72
2022/09/29 05:28:32;;;;;;;26.90;11.48;;;6.30;99.90;;;;;;5050514;28;20484;-71
2022/09/29 05:31:02;;;;;;;29.77;12.50;;;6.30;99.90;;;;;;5050902;28;20049;-72
2022/09/29 05:33:28;;;;;;;35.35;11.95;;;6.30;99.90;;;;;;5048758;28;20543;-73
2022/09/29 05:35:54;;;;;;;33.38;13.25;;;6.30;99.90;;;;;;5049277;28;20108;-70
2022/09/29 05:38:19;;;;;;;34.55;14.05;;;6.40;99.90;;;;;;5050266;28;20071;-70
2022/09/29 05:40:45;;;;;;;52.30;14.55;;;6.40;99.90;;;;;;5050749;28;21095;-71
2022/09/29 05:43:11;;;;;;;35.38;13.88;;;6.60;99.90;;;;;;5050082;28;20030;-72
2022/09/29 05:45:36;;;;;;;42.22;16.60;;;6.70;99.90;;;;;;5050358;28;20071;-73
2022/09/29 05:48:02;;;;;;;39.53;15.73;;;6.70;99.90;;;;;;5045528;28;20053;-71
2022/09/29 05:50:28;;;;;;;45.72;15.10;;;6.70;99.90;;;;;;5036806;28;21037;-73
2022/09/29 05:52:54;;;;;;;42.65;13.80;;;6.70;99.90;;;;;;5023950;28;20369;-74
2022/09/29 05:55:20;;;;;;;34.45;13.70;;;6.80;99.90;;;;;;5047141;28;20048;-73
2022/09/29 05:57:48;;;;;;;27.30;13.45;;;6.80;99.90;;;;;;5049772;28;20032;-71
2022/09/29 06:00:14;;;;;;;33.25;13.52;;;6.80;99.90;;;;;;5046799;28;20386;-72
2022/09/29 06:02:40;;;;;;;44.97;13.98;;;6.90;99.90;;;;;;5040548;28;20029;-72
2022/09/29 06:05:06;;;;;;;45.20;13.80;;;7.00;99.90;;;;;;5030806;28;20033;-71
2022/09/29 06:07:31;;;;;;;33.67;13.10;;;7.00;99.90;;;;;;5046827;28;20036;-71
2022/09/29 06:09:57;;;;;;;26.48;12.07;;;7.00;99.90;;;;;;5046133;28;20535;-72
2022/09/29 06:12:23;;;;;;;27.75;13.02;;;7.00;99.90;;;;;;5048539;28;20064;-73
2022/09/29 06:14:49;;;;;;;38.65;13.82;;;7.00;99.90;;;;;;5049604;28;20082;-70
2022/09/29 06:17:14;;;;;;;30.20;13.73;;;7.00;99.90;;;;;;5049804;28;21481;-72
2022/09/29 06:19:40;;;;;;;35.10;12.82;;;7.10;99.90;;;;;;5044592;28;20033;-72
2022/09/29 06:22:06;;;;;;;35.50;14.77;;;7.20;99.90;;;;;;5048086;28;20029;-71
2022/09/29 06:24:31;;;;;;;44.08;14.00;;;7.20;99.90;;;;;;5030451;28;20718;-72
2022/09/29 06:26:57;;;;;;;29.80;12.50;;;7.20;99.90;;;;;;5048956;28;20025;-73
2022/09/29 06:29:22;;;;;;;39.92;11.73;;;7.30;99.90;;;;;;5048847;28;20084;-71
2022/09/29 06:31:48;;;;;;;28.25;11.90;;;7.30;99.90;;;;;;5030954;28;20037;-72
2022/09/29 06:34:14;;;;;;;41.80;11.63;;;7.40;99.90;;;;;;5049675;28;20048;-73
2022/09/29 06:39:27;;;;;;;20.50;10.38;;;7.50;99.90;;;;;;5044477;28;20028;-74
2022/09/29 06:41:55;;;;;;;18.88;9.50;;;7.50;99.90;;;;;;5048552;28;20025;-72
2022/09/29 06:44:23;;;;;;;34.92;10.68;;;7.50;99.90;;;;;;5047367;28;20477;-72
2022/09/29 06:46:50;;;;;;;49.13;10.82;;;7.40;99.90;;;;;;5047356;28;20117;-72
2022/09/29 06:49:16;;;;;;;27.42;9.73;;;7.40;99.90;;;;;;5047534;28;20017;-72
2022/09/29 06:51:42;;;;;;;26.00;10.55;;;7.40;99.90;;;;;;5045315;28;20027;-73
2022/09/29 06:54:10;;;;;;;22.52;10.90;;;7.50;99.90;;;;;;5046557;28;20025;-72
2022/09/29 06:56:35;;;;;;;21.70;11.10;;;7.50;99.90;;;;;;5041169;28;20025;-72
2022/09/29 06:59:01;;;;;;;36.75;10.48;;;7.50;99.90;;;;;;5046574;28;20083;-72
2022/09/29 07:01:27;;;;;;;28.35;11.57;;;7.50;99.90;;;;;;5048074;28;20040;-73
2022/09/29 07:03:52;;;;;;;39.83;11.82;;;7.50;99.90;;;;;;5044143;28;20029;-72
2022/09/29 07:06:18;;;;;;;26.45;10.27;;;7.60;99.90;;;;;;5030701;28;20457;-71
2022/09/29 07:08:43;;;;;;;19.30;11.43;;;7.50;99.90;;;;;;5030772;28;20060;-71
2022/09/29 07:11:09;;;;;;;24.63;11.82;;;7.50;99.90;;;;;;5044503;28;20097;-73
2022/09/29 07:13:36;;;;;;;26.35;11.82;;;7.60;99.90;;;;;;5046958;28;20021;-72
2022/09/29 07:16:07;;;;;;;21.92;11.38;;;7.70;99.90;;;;;;5044825;28;20089;-72
2022/09/29 07:18:36;;;;;;;31.08;13.82;;;7.80;99.90;;;;;;5039590;28;20088;-71
2022/09/29 07:21:05;;;;;;;41.35;14.23;;;7.80;99.90;;;;;;5045421;28;20025;-72
2022/09/29 07:23:32;;;;;;;29.30;13.88;;;7.90;99.90;;;;;;5024841;28;20116;-73
2022/09/29 07:25:57;;;;;;;34.97;15.32;;;8.00;99.90;;;;;;5046067;28;20025;-73
2022/09/29 07:28:23;;;;;;;33.17;15.70;;;8.10;99.90;;;;;;5047218;28;20567;-73
2022/09/29 07:31:04;;;;;;;74.82;17.48;;;8.20;99.90;;;;;;5029389;28;20028;-71
2022/09/29 07:33:30;;;;;;;31.20;15.32;;;8.20;99.90;;;;;;5046183;28;20025;-70
2022/09/29 07:36:02;;;;;;;44.42;16.52;;;8.30;99.90;;;;;;5045402;28;20040;-71
2022/09/29 07:38:29;;;;;;;30.35;15.38;;;8.30;99.90;;;;;;5048087;28;20033;-73
2022/09/29 07:41:01;;;;;;;42.95;16.42;;;8.40;99.90;;;;;;5030412;28;20025;-72
2022/09/29 07:43:26;;;;;;;32.60;16.25;;;8.30;99.90;;;;;;5049616;28;20040;-73
2022/09/29 07:45:52;;;;;;;38.92;17.60;;;8.40;99.90;;;;;;5028158;28;20053;-71
2022/09/29 07:48:18;;;;;;;47.28;17.17;;;8.50;99.90;;;;;;5029989;28;20129;-73
2022/09/29 07:50:44;;;;;;;33.67;16.52;;;8.50;99.90;;;;;;5033920;28;20030;-71
2022/09/29 07:53:11;;;;;;;34.33;17.27;;;8.60;99.90;;;;;;5035202;28;20025;-72
2022/09/29 07:55:37;;;;;;;37.42;16.65;;;8.50;99.90;;;;;;5036720;28;20094;-73
2022/09/29 07:58:03;;;;;;;33.38;16.27;;;8.60;99.90;;;;;;5035799;28;20018;-72
2022/09/29 08:00:30;;;;;;;40.65;16.77;;;8.60;99.90;;;;;;5036142;28;20029;-71
2022/09/29 08:03:09;;;;;;;35.88;17.60;;;8.70;99.90;;;;;;5035710;28;20028;-72
2022/09/29 08:05:34;;;;;;;39.63;17.25;;;8.80;99.90;;;;;;5035590;28;20037;-71
2022/09/29 08:08:02;;;;;;;39.38;17.25;;;8.80;99.90;;;;;;5018160;28;20053;-73
2022/09/29 08:10:30;;;;;;;41.45;17.60;;;8.80;99.90;;;;;;5036044;28;20025;-71
2022/09/29 08:12:56;;;;;;;35.65;16.73;;;8.80;99.90;;;;;;5034970;28;20041;-71
2022/09/29 08:15:23;;;;;;;36.40;17.55;;;8.90;99.90;;;;;;5037348;28;20029;-71
2022/09/29 08:17:53;;;;;;;37.20;16.67;;;9.10;99.90;;;;;;5036564;28;20046;-71
2022/09/29 08:20:19;;;;;;;32.55;17.30;;;9.10;99.90;;;;;;5016450;28;20079;-71
2022/09/29 08:22:45;;;;;;;32.63;16.85;;;9.10;99.90;;;;;;5017870;28;20458;-72
2022/09/29 08:25:11;;;;;;;37.60;16.70;;;9.30;99.90;;;;;;5036230;28;20026;-74
2022/09/29 08:27:36;;;;;;;36.78;17.23;;;9.30;99.90;;;;;;5035604;28;20042;-75
2022/09/29 08:30:03;;;;;;;34.63;15.63;;;9.40;99.90;;;;;;5034861;28;20081;-73
2022/09/29 08:32:28;;;;;;;33.80;16.27;;;9.40;99.90;;;;;;5035547;28;20025;-74
2022/09/29 08:34:54;;;;;;;32.72;13.80;;;9.50;99.90;;;;;;5035958;28;20097;-75
2022/09/29 08:37:19;;;;;;;34.78;15.52;;;9.50;99.90;;;;;;5021256;28;20040;-74
2022/09/29 08:39:45;;;;;;;33.72;16.05;;;9.50;99.90;;;;;;5027409;28;20463;-74
2022/09/29 08:42:29;;;;;;;31.83;15.65;;;9.50;99.90;;;;;;5032325;28;20045;-74
2022/09/29 08:45:01;;;;;;;30.88;14.02;;;9.60;99.90;;;;;;5036745;28;20101;-74
2022/09/29 08:47:39;;;;;;;33.78;14.80;;;9.70;99.90;;;;;;5052617;28;20045;-77
2022/09/29 08:50:30;;;;;;;31.20;13.95;;;9.70;99.90;;;;;;5053663;28;20048;-74
2022/09/29 08:53:00;;;;;;;27.75;13.93;;;9.70;99.90;;;;;;5055007;28;20032;-75
2022/09/29 08:55:51;;;;;;;36.17;14.68;;;9.70;99.90;;;;;;5052509;28;20463;-75
2022/09/29 08:58:17;;;;;;;27.83;13.88;;;9.70;99.90;;;;;;5050474;28;20036;-73
2022/09/29 09:01:13;;;;;;;30.23;13.95;;;9.70;99.90;;;;;;5050347;28;20029;-75
2022/09/29 09:03:52;;;;;;;27.52;13.70;;;9.70;99.90;;;;;;5046065;28;20028;-73
2022/09/29 09:06:35;;;;;;;32.55;15.30;;;9.70;99.90;;;;;;5052296;28;20035;-73
2022/09/29 09:09:09;;;;;;;31.25;14.90;;;9.80;99.90;;;;;;5034936;28;20041;-75
2022/09/29 09:11:51;;;;;;;35.28;13.30;;;9.80;99.90;;;;;;5049078;28;20026;-74
2022/09/29 09:14:20;;;;;;;27.50;12.70;;;10.00;99.90;;;;;;5033887;28;20035;-74
2022/09/29 09:17:01;;;;;;;25.35;14.02;;;10.00;99.90;;;;;;5048566;28;20044;-74
2022/09/29 09:19:29;;;;;;;28.88;15.23;;;10.00;99.90;;;;;;5051268;28;20048;-73
2022/09/29 09:22:00;;;;;;;31.40;14.80;;;10.00;99.90;;;;;;5051641;28;20024;-76
2022/09/29 09:24:32;;;;;;;25.95;13.38;;;10.10;99.90;;;;;;5051613;28;20083;-76
2022/09/29 09:26:58;;;;;;;26.25;13.00;;;10.20;99.90;;;;;;5051589;28;20037;-76
2022/09/29 09:29:36;;;;;;;27.73;14.07;;;10.20;99.90;;;;;;5032390;28;20046;-75
2022/09/29 09:32:16;;;;;;;29.92;14.52;;;10.30;99.90;;;;;;5050236;28;20030;-74
2022/09/29 09:35:22;;;;;;;31.88;14.90;;;10.40;99.90;;;;;;5052494;28;20085;-79
2022/09/29 09:37:49;;;;;;;25.25;12.63;;;10.50;99.90;;;;;;5031246;28;20044;-75
2022/09/29 09:40:41;;;;;;;24.65;13.75;;;10.50;99.90;;;;;;5050862;28;20025;-73
2022/09/29 09:43:22;;;;;;;36.05;13.88;;;10.60;99.90;;;;;;5038422;28;20879;-73
2022/09/29 09:45:57;;;;;;;30.13;14.18;;;10.60;99.90;;;;;;5049795;28;20053;-75
2022/09/29 09:48:40;;;;;;;23.38;12.35;;;10.70;99.90;;;;;;5048763;28;20120;-76
2022/09/29 09:51:23;;;;;;;32.38;13.23;;;10.80;99.90;;;;;;5050488;28;20053;-74
2022/09/29 09:53:52;;;;;;;26.15;11.95;;;10.80;99.90;;;;;;5050538;28;20029;-75
2022/09/29 09:56:51;;;;;;;32.92;13.25;;;10.90;99.90;;;;;;5051159;28;20024;-75
2022/09/29 09:59:32;;;;;;;25.45;13.10;;;11.00;99.90;;;;;;5051333;28;20095;-76
2022/09/29 10:01:58;;;;;;;28.13;12.77;;;11.10;99.90;;;;;;5052289;28;20109;-75
2022/09/29 10:04:24;;;;;;;27.10;12.80;;;11.20;99.90;;;;;;5051342;28;20029;-74
2022/09/29 10:06:51;;;;;;;24.45;12.50;;;11.30;99.90;;;;;;5052353;28;20032;-75
2022/09/29 10:09:17;;;;;;;28.73;12.93;;;11.40;99.90;;;;;;5033504;28;20035;-74
2022/09/29 10:11:44;;;;;;;25.20;13.15;;;11.40;99.90;;;;;;5046758;28;20033;-75
2022/09/29 10:14:24;;;;;;;26.33;13.02;;;11.50;99.90;;;;;;5049470;28;20052;-72
2022/09/29 10:16:58;;;;;;;21.65;11.52;;;11.70;99.90;;;;;;5048220;28;20493;-74
2022/09/29 10:19:57;;;;;;;26.05;13.07;;;11.80;99.90;;;;;;5047498;28;20029;-74
2022/09/29 10:22:24;;;;;;;23.08;11.98;;;11.90;99.90;;;;;;5047247;28;20183;-75
2022/09/29 10:25:13;;;;;;;31.27;13.00;;;12.00;99.90;;;;;;5045855;28;20052;-74
2022/09/29 10:27:42;;;;;;;38.63;13.00;;;12.10;99.90;;;;;;5040440;28;20045;-76
2022/09/29 10:30:34;;;;;;;26.13;12.45;;;12.30;99.90;;;;;;5049332;28;20085;-74
2022/09/29 10:33:02;;;;;;;24.05;12.40;;;12.30;99.90;;;;;;5050483;28;20044;-74
2022/09/29 10:35:35;;;;;;;23.90;12.27;;;12.40;99.90;;;;;;5047865;28;20433;-73
2022/09/29 10:38:05;;;;;;;23.38;10.65;;;12.50;99.90;;;;;;5050088;28;20025;-76
2022/09/29 10:40:32;;;;;;;17.45;10.20;;;12.60;99.90;;;;;;5049026;28;20108;-75
2022/09/29 10:42:58;;;;;;;19.88;9.75;;;12.60;99.90;;;;;;5050817;28;20029;-75
2022/09/29 10:45:31;;;;;;;16.30;8.55;;;12.70;99.90;;;;;;5030524;28;20486;-75
2022/09/29 10:47:57;;;;;;;15.10;9.07;;;12.80;99.90;;;;;;5046353;28;20044;-73
2022/09/29 10:50:28;;;;;;;13.82;8.35;;;12.90;99.90;;;;;;5050896;28;20388;-74
2022/09/29 10:52:56;;;;;;;17.35;9.45;;;13.00;99.90;;;;;;5048926;28;20108;-76
2022/09/29 10:55:26;;;;;;;15.70;8.65;;;13.10;99.90;;;;;;5046886;28;20033;-77
2022/09/29 10:57:54;;;;;;;15.27;8.10;;;13.20;99.90;;;;;;5048183;28;20456;-72
2022/09/29 11:00:31;;;;;;;12.88;7.13;;;13.40;99.90;;;;;;5030677;28;20856;-76
2022/09/29 11:03:13;;;;;;;17.20;7.20;;;13.40;99.90;;;;;;5026255;28;20470;-77
2022/09/29 11:06:08;;;;;;;11.05;6.05;;;13.60;99.90;;;;;;5047417;28;20032;-77
2022/09/29 11:08:56;;;;;;;13.38;6.93;;;13.80;99.90;;;;;;5046074;28;20045;-72
2022/09/29 11:11:32;;;;;;;13.18;7.35;;;13.90;99.90;;;;;;5049894;28;20083;-73
2022/09/29 11:13:58;;;;;;;12.68;7.20;;;14.10;99.90;;;;;;5047274;28;20060;-73
2022/09/29 11:16:29;;;;;;;12.95;6.40;;;14.20;99.90;;;;;;5030365;28;20025;-73
2022/09/29 11:19:10;;;;;;;10.30;5.82;;;14.30;99.90;;;;;;5047960;28;20076;-73
2022/09/29 11:21:42;;;;;;;9.95;4.60;;;14.40;99.90;;;;;;5048945;28;20044;-73
2022/09/29 11:24:41;;;;;;;11.32;4.72;;;14.40;99.90;;;;;;5047864;28;20089;-74
2022/09/29 11:27:33;;;;;;;8.88;4.38;;;14.40;99.90;;;;;;5049081;28;20412;-73
2022/09/29 11:30:01;;;;;;;7.07;4.22;;;14.30;99.90;;;;;;5046817;28;20052;-76
2022/09/29 11:32:27;;;;;;;8.05;4.43;;;14.40;99.90;;;;;;5047568;28;20029;-74
2022/09/29 11:35:30;;;;;;;9.07;3.45;;;14.30;99.90;;;;;;5048126;28;20120;-72
2022/09/29 11:38:15;;;;;;;8.48;4.18;;;14.30;99.90;;;;;;5046824;28;20029;-74
2022/09/29 11:40:47;;;;;;;7.22;3.90;;;14.30;99.90;;;;;;5038838;28;20020;-76
2022/09/29 11:43:42;;;;;;;6.15;3.70;;;14.40;99.90;;;;;;5048448;28;20018;-75
2022/09/29 11:46:32;;;;;;;8.20;3.75;;;14.50;99.90;;;;;;5046999;28;20046;-75
2022/09/29 11:49:06;;;;;;;5.65;2.95;;;14.70;99.90;;;;;;5047070;28;20052;-74
2022/09/29 11:51:50;;;;;;;;;;;14.70;99.90;;;;;;5047386;28;20633;-77
2022/09/29 11:54:50;;;;;;;5.50;3.13;;;14.80;99.90;;;;;;5046034;28;20318;-74
2022/09/29 11:57:43;;;;;;;5.80;3.20;;;14.80;99.90;;;;;;5046760;28;20044;-76
2022/09/29 12:00:13;;;;;;;7.43;3.42;;;14.70;99.90;;;;;;5047442;28;20157;-72
2022/09/29 12:03:16;;;;;;;5.57;3.08;;;14.80;99.90;;;;;;5047311;28;20029;-74
2022/09/29 12:06:12;;;;;;;7.70;3.90;;;14.90;99.90;;;;;;5046513;28;20035;-73
2022/09/29 12:09:16;;;;;;;8.45;3.97;;;14.90;99.90;;;;;;5047387;28;20037;-75
2022/09/29 12:12:14;;;;;;;6.65;3.50;;;15.00;99.90;;;;;;5047050;28;20228;-72
2022/09/29 12:14:54;;;;;;;8.77;3.97;;;15.00;99.90;;;;;;5046390;28;20049;-75
2022/09/29 12:17:20;;;;;;;7.18;4.30;;;15.00;99.90;;;;;;5047230;28;20026;-76
2022/09/29 12:19:50;;;;;;;5.07;3.35;;;14.90;99.90;;;;;;5030670;28;20047;-76
2022/09/29 12:22:18;;;;;;;8.98;4.63;;;14.90;99.90;;;;;;5048143;28;20065;-73
2022/09/29 12:24:54;;;;;;;7.90;3.97;;;14.90;99.90;;;;;;5047763;28;20051;-75
2022/09/29 12:27:19;;;;;;;9.38;5.15;;;14.80;99.90;;;;;;5048082;28;20038;-72
2022/09/29 12:29:51;;;;;;;8.82;4.65;;;14.70;99.90;;;;;;5047534;28;20040;-73
2022/09/29 12:32:24;;;;;;;11.20;4.78;;;14.70;99.90;;;;;;5047401;28;20037;-73
2022/09/29 12:35:28;;;;;;;6.80;4.28;;;14.60;99.90;;;;;;5044849;28;20033;-73
2022/09/29 12:38:17;;;;;;;9.48;5.20;;;14.60;99.90;;;;;;5036877;28;20041;-72
2022/09/29 12:41:01;;;;;;;10.70;4.90;;;14.60;99.90;;;;;;5051023;28;20037;-73
2022/09/29 12:43:33;;;;;;;7.50;4.40;;;14.60;99.90;;;;;;5052004;28;20033;-72
2022/09/29 13:11:50;;;;;;;6.60;3.67;;;14.80;99.90;;;;;;5323780;22;20053;-73
2022/09/29 13:15:08;;;;;;;7.38;2.72;;;14.80;99.90;;;;;;5068800;28;20086;-74
2022/09/29 13:18:07;;;;;;;4.22;2.75;;;14.70;99.90;;;;;;5036382;28;20044;-72
2022/09/29 13:20:51;;;;;;;5.95;3.45;;;14.70;99.90;;;;;;5072002;28;20039;-73
2022/09/29 13:23:38;;;;;;;7.45;2.85;;;14.70;99.90;;;;;;5070567;28;20091;-76
2022/09/29 13:26:10;;;;;;;5.20;2.92;;;14.60;99.90;;;;;;5071070;28;20029;-72
2022/09/29 13:28:45;;;;;;;5.97;3.10;;;14.60;99.90;;;;;;5070550;28;20059;-74
2022/09/29 13:31:16;;;;;;;4.43;2.90;;;14.50;99.90;;;;;;5070280;28;20060;-72
2022/09/29 13:33:52;;;;;;;3.78;2.70;;;14.50;99.90;;;;;;5071733;28;20040;-75
2022/09/29 13:36:39;;;;;;;6.63;3.22;;;14.50;99.90;;;;;;5072180;28;20032;-73